sensor_id;sensor_type;location;lat;lon;timestamp;P1;durP1;ratioP1;P2;durP2;ratioP2
69057;SDS011;56128;37.534;-122.308;2023-03-13T00:03:53;1.02;;;0.28;;
69057;SDS011;56128;37.534;-122.308;2023-03-13T00:06:20;0.20;;;0.20;;
69057;SDS011;56128;37.534;-122.308;2023-03-13T00:08:48;0.20;;;0.20;;
69057;SDS011;56128;37.534;-122.308;2023-03-13T00:11:14;1.85;;;0.38;;
69057;SDS011;56128;37.534;-122.308;2023-03-13T00:13:41;0.35;;;0.30;;
69057;SDS011;56128;37.534;-122.308;2023-03-13T00:16:09;0.20;;;0.20;;
69057;SDS011;56128;37.534;-122.308;2023-03-13T00:18:37;0.20;;;0.20;;
69057;SDS011;56128;37.534;-122.308;2023-03-13T00:21:05;0.32;;;0.32;;
69057;SDS011;56128;37.534;-122.308;2023-03-13T00:23:33;0.30;;;0.30;;
69057;SDS011;56128;37.534;-122.308;2023-03-13T00:26:05;0.65;;;0.28;;
69057;SDS011;56128;37.534;-122.308;2023-03-13T00:28:33;0.20;;;0.20;;
69057;SDS011;56128;37.534;-122.308;2023-03-13T00:31:07;0.30;;;0.30;;
69057;SDS011;56128;37.534;-122.308;2023-03-13T00:33:45;0.40;;;0.40;;
69057;SDS011;56128;37.534;-122.308;2023-03-13T00:36:13;0.10;;;0.10;;
69057;SDS011;56128;37.534;-122.308;2023-03-13T00:38:59;0.60;;;0.30;;
69057;SDS011;56128;37.534;-122.308;2023-03-13T00:41:26;0.52;;;0.32;;
69057;SDS011;56128;37.534;-122.308;2023-03-13T00:43:54;0.30;;;0.20;;
69057;SDS011;56128;37.534;-122.308;2023-03-13T00:46:22;0.45;;;0.30;;
69057;SDS011;56128;37.534;-122.308;2023-03-13T00:48:50;0.60;;;0.20;;
69057;SDS011;56128;37.534;-122.308;2023-03-13T00:51:17;0.80;;;0.38;;
69057;SDS011;56128;37.534;-122.308;2023-03-13T00:53:45;0.20;;;0.20;;
69057;SDS011;56128;37.534;-122.308;2023-03-13T00:56:12;0.30;;;0.30;;
69057;SDS011;56128;37.534;-122.308;2023-03-13T00:58:40;1.23;;;0.50;;
69057;SDS011;56128;37.534;-122.308;2023-03-13T01:01:15;0.40;;;0.40;;
69057;SDS011;56128;37.534;-122.308;2023-03-13T01:03:44;0.57;;;0.40;;
69057;SDS011;56128;37.534;-122.308;2023-03-13T01:06:14;0.40;;;0.40;;
69057;SDS011;56128;37.534;-122.308;2023-03-13T01:08:43;1.00;;;0.45;;
69057;SDS011;56128;37.534;-122.308;2023-03-13T01:11:11;0.43;;;0.40;;
69057;SDS011;56128;37.534;-122.308;2023-03-13T01:13:40;1.85;;;0.82;;
69057;SDS011;56128;37.534;-122.308;2023-03-13T01:16:08;0.30;;;0.30;;
69057;SDS011;56128;37.534;-122.308;2023-03-13T01:18:40;0.43;;;0.30;;
69057;SDS011;56128;37.534;-122.308;2023-03-13T01:21:08;0.40;;;0.32;;
69057;SDS011;56128;37.534;-122.308;2023-03-13T01:23:35;0.50;;;0.40;;
69057;SDS011;56128;37.534;-122.308;2023-03-13T01:26:03;0.30;;;0.30;;
69057;SDS011;56128;37.534;-122.308;2023-03-13T01:28:31;0.30;;;0.30;;
69057;SDS011;56128;37.534;-122.308;2023-03-13T01:31:46;0.50;;;0.30;;
69057;SDS011;56128;37.534;-122.308;2023-03-13T01:33:52;0.38;;;0.38;;
69057;SDS011;56128;37.534;-122.308;2023-03-13T01:36:20;0.32;;;0.30;;
69057;SDS011;56128;37.534;-122.308;2023-03-13T01:38:47;1.65;;;0.30;;
69057;SDS011;56128;37.534;-122.308;2023-03-13T01:41:15;1.27;;;0.30;;
69057;SDS011;56128;37.534;-122.308;2023-03-13T01:43:42;0.60;;;0.40;;
69057;SDS011;56128;37.534;-122.308;2023-03-13T01:46:16;0.65;;;0.30;;
69057;SDS011;56128;37.534;-122.308;2023-03-13T01:51:38;0.10;;;0.10;;
69057;SDS011;56128;37.534;-122.308;2023-03-13T01:54:11;0.38;;;0.30;;
69057;SDS011;56128;37.534;-122.308;2023-03-13T01:56:54;0.20;;;0.20;;
69057;SDS011;56128;37.534;-122.308;2023-03-13T01:59:28;0.82;;;0.20;;
69057;SDS011;56128;37.534;-122.308;2023-03-13T02:01:59;2.10;;;0.30;;
69057;SDS011;56128;37.534;-122.308;2023-03-13T02:04:29;1.88;;;0.30;;
69057;SDS011;56128;37.534;-122.308;2023-03-13T02:07:02;0.45;;;0.40;;
69057;SDS011;56128;37.534;-122.308;2023-03-13T02:09:35;0.75;;;0.40;;
69057;SDS011;56128;37.534;-122.308;2023-03-13T02:12:12;0.30;;;0.30;;
69057;SDS011;56128;37.534;-122.308;2023-03-13T02:14:43;0.20;;;0.20;;
69057;SDS011;56128;37.534;-122.308;2023-03-13T02:17:12;0.20;;;0.20;;
69057;SDS011;56128;37.534;-122.308;2023-03-13T02:24:52;0.82;;;0.30;;
69057;SDS011;56128;37.534;-122.308;2023-03-13T02:27:28;0.40;;;0.30;;
69057;SDS011;56128;37.534;-122.308;2023-03-13T02:29:54;0.60;;;0.35;;
69057;SDS011;56128;37.534;-122.308;2023-03-13T02:32:22;0.60;;;0.38;;
69057;SDS011;56128;37.534;-122.308;2023-03-13T02:34:48;1.38;;;0.30;;
69057;SDS011;56128;37.534;-122.308;2023-03-13T02:37:21;0.70;;;0.32;;
69057;SDS011;56128;37.534;-122.308;2023-03-13T02:39:51;0.30;;;0.30;;
69057;SDS011;56128;37.534;-122.308;2023-03-13T02:42:18;1.35;;;0.40;;
69057;SDS011;56128;37.534;-122.308;2023-03-13T02:44:47;0.20;;;0.20;;
69057;SDS011;56128;37.534;-122.308;2023-03-13T02:47:19;1.55;;;0.30;;
69057;SDS011;56128;37.534;-122.308;2023-03-13T02:49:46;2.63;;;0.38;;
69057;SDS011;56128;37.534;-122.308;2023-03-13T02:52:25;0.40;;;0.40;;
69057;SDS011;56128;37.534;-122.308;2023-03-13T02:54:57;1.30;;;0.20;;
69057;SDS011;56128;37.534;-122.308;2023-03-13T02:57:27;2.30;;;0.43;;
69057;SDS011;56128;37.534;-122.308;2023-03-13T02:59:53;1.20;;;0.38;;
69057;SDS011;56128;37.534;-122.308;2023-03-13T03:02:20;0.20;;;0.20;;
69057;SDS011;56128;37.534;-122.308;2023-03-13T03:04:47;1.75;;;0.32;;
69057;SDS011;56128;37.534;-122.308;2023-03-13T03:07:13;0.22;;;0.20;;
69057;SDS011;56128;37.534;-122.308;2023-03-13T03:09:39;2.33;;;0.80;;
69057;SDS011;56128;37.534;-122.308;2023-03-13T03:12:05;3.03;;;0.63;;
69057;SDS011;56128;37.534;-122.308;2023-03-13T03:14:32;0.47;;;0.32;;
69057;SDS011;56128;37.534;-122.308;2023-03-13T03:16:58;0.55;;;0.35;;
69057;SDS011;56128;37.534;-122.308;2023-03-13T03:19:24;0.38;;;0.30;;
69057;SDS011;56128;37.534;-122.308;2023-03-13T03:21:51;0.52;;;0.30;;
69057;SDS011;56128;37.534;-122.308;2023-03-13T03:24:17;0.73;;;0.20;;
69057;SDS011;56128;37.534;-122.308;2023-03-13T03:26:43;0.20;;;0.20;;
69057;SDS011;56128;37.534;-122.308;2023-03-13T03:29:09;0.32;;;0.20;;
69057;SDS011;56128;37.534;-122.308;2023-03-13T03:31:36;1.00;;;0.38;;
69057;SDS011;56128;37.534;-122.308;2023-03-13T03:34:02;0.25;;;0.22;;
69057;SDS011;56128;37.534;-122.308;2023-03-13T03:36:28;0.30;;;0.20;;
69057;SDS011;56128;37.534;-122.308;2023-03-13T03:38:54;1.70;;;0.32;;
69057;SDS011;56128;37.534;-122.308;2023-03-13T03:41:20;1.20;;;0.40;;
69057;SDS011;56128;37.534;-122.308;2023-03-13T03:43:47;1.92;;;0.30;;
69057;SDS011;56128;37.534;-122.308;2023-03-13T03:46:14;0.52;;;0.30;;
69057;SDS011;56128;37.534;-122.308;2023-03-13T03:48:40;2.10;;;0.30;;
69057;SDS011;56128;37.534;-122.308;2023-03-13T03:51:07;1.63;;;0.50;;
69057;SDS011;56128;37.534;-122.308;2023-03-13T03:53:33;6.72;;;0.60;;
69057;SDS011;56128;37.534;-122.308;2023-03-13T03:55:59;0.60;;;0.30;;
69057;SDS011;56128;37.534;-122.308;2023-03-13T03:58:26;1.52;;;0.30;;
69057;SDS011;56128;37.534;-122.308;2023-03-13T04:00:52;1.73;;;0.50;;
69057;SDS011;56128;37.534;-122.308;2023-03-13T04:03:20;4.18;;;1.55;;
69057;SDS011;56128;37.534;-122.308;2023-03-13T04:05:46;2.83;;;1.50;;
69057;SDS011;56128;37.534;-122.308;2023-03-13T04:08:13;1.52;;;0.90;;
69057;SDS011;56128;37.534;-122.308;2023-03-13T04:10:39;0.80;;;0.60;;
69057;SDS011;56128;37.534;-122.308;2023-03-13T04:13:05;0.70;;;0.50;;
69057;SDS011;56128;37.534;-122.308;2023-03-13T04:15:32;0.70;;;0.50;;
69057;SDS011;56128;37.534;-122.308;2023-03-13T04:17:58;1.35;;;0.40;;
69057;SDS011;56128;37.534;-122.308;2023-03-13T04:20:24;0.40;;;0.40;;
69057;SDS011;56128;37.534;-122.308;2023-03-13T04:22:53;3.08;;;0.90;;
69057;SDS011;56128;37.534;-122.308;2023-03-13T04:25:19;1.23;;;0.40;;
69057;SDS011;56128;37.534;-122.308;2023-03-13T04:27:45;0.85;;;0.40;;
69057;SDS011;56128;37.534;-122.308;2023-03-13T04:30:12;1.25;;;0.47;;
69057;SDS011;56128;37.534;-122.308;2023-03-13T04:32:38;1.02;;;0.47;;
69057;SDS011;56128;37.534;-122.308;2023-03-13T04:35:05;3.53;;;0.60;;
69057;SDS011;56128;37.534;-122.308;2023-03-13T04:37:31;0.75;;;0.63;;
69057;SDS011;56128;37.534;-122.308;2023-03-13T04:39:58;0.98;;;0.70;;
69057;SDS011;56128;37.534;-122.308;2023-03-13T04:42:24;1.33;;;0.75;;
69057;SDS011;56128;37.534;-122.308;2023-03-13T04:44:50;0.55;;;0.45;;
69057;SDS011;56128;37.534;-122.308;2023-03-13T04:47:16;1.00;;;0.60;;
69057;SDS011;56128;37.534;-122.308;2023-03-13T04:49:43;0.52;;;0.38;;
69057;SDS011;56128;37.534;-122.308;2023-03-13T04:52:09;0.30;;;0.30;;
69057;SDS011;56128;37.534;-122.308;2023-03-13T04:54:35;0.70;;;0.60;;
69057;SDS011;56128;37.534;-122.308;2023-03-13T04:57:01;0.40;;;0.40;;
69057;SDS011;56128;37.534;-122.308;2023-03-13T04:59:28;0.50;;;0.40;;
69057;SDS011;56128;37.534;-122.308;2023-03-13T05:01:54;7.70;;;4.22;;
69057;SDS011;56128;37.534;-122.308;2023-03-13T05:04:20;6.45;;;3.10;;
69057;SDS011;56128;37.534;-122.308;2023-03-13T05:06:46;6.78;;;2.83;;
69057;SDS011;56128;37.534;-122.308;2023-03-13T05:09:12;3.80;;;1.40;;
69057;SDS011;56128;37.534;-122.308;2023-03-13T05:11:39;2.20;;;1.10;;
69057;SDS011;56128;37.534;-122.308;2023-03-13T05:14:06;1.50;;;1.10;;
69057;SDS011;56128;37.534;-122.308;2023-03-13T05:16:36;3.03;;;0.93;;
69057;SDS011;56128;37.534;-122.308;2023-03-13T05:19:03;0.73;;;0.52;;
69057;SDS011;56128;37.534;-122.308;2023-03-13T05:21:29;0.50;;;0.50;;
69057;SDS011;56128;37.534;-122.308;2023-03-13T05:23:55;1.45;;;0.70;;
69057;SDS011;56128;37.534;-122.308;2023-03-13T05:26:21;1.55;;;0.63;;
69057;SDS011;56128;37.534;-122.308;2023-03-13T05:28:48;0.50;;;0.50;;
69057;SDS011;56128;37.534;-122.308;2023-03-13T05:31:14;0.85;;;0.85;;
69057;SDS011;56128;37.534;-122.308;2023-03-13T05:33:43;2.13;;;0.70;;
69057;SDS011;56128;37.534;-122.308;2023-03-13T05:36:09;0.50;;;0.50;;
69057;SDS011;56128;37.534;-122.308;2023-03-13T05:38:35;1.25;;;0.70;;
69057;SDS011;56128;37.534;-122.308;2023-03-13T05:41:01;3.08;;;0.77;;
69057;SDS011;56128;37.534;-122.308;2023-03-13T05:43:27;2.05;;;0.70;;
69057;SDS011;56128;37.534;-122.308;2023-03-13T05:45:54;1.10;;;0.60;;
69057;SDS011;56128;37.534;-122.308;2023-03-13T05:48:20;0.70;;;0.40;;
69057;SDS011;56128;37.534;-122.308;2023-03-13T05:50:46;0.88;;;0.60;;
69057;SDS011;56128;37.534;-122.308;2023-03-13T05:53:12;1.83;;;0.80;;
69057;SDS011;56128;37.534;-122.308;2023-03-13T05:55:38;2.55;;;1.50;;
69057;SDS011;56128;37.534;-122.308;2023-03-13T05:58:05;1.98;;;1.10;;
69057;SDS011;56128;37.534;-122.308;2023-03-13T06:00:31;0.90;;;0.80;;
69057;SDS011;56128;37.534;-122.308;2023-03-13T06:02:57;0.80;;;0.68;;
69057;SDS011;56128;37.534;-122.308;2023-03-13T06:05:24;2.28;;;0.82;;
69057;SDS011;56128;37.534;-122.308;2023-03-13T06:07:50;1.08;;;0.77;;
69057;SDS011;56128;37.534;-122.308;2023-03-13T06:10:17;2.42;;;0.90;;
69057;SDS011;56128;37.534;-122.308;2023-03-13T06:12:43;6.53;;;1.40;;
69057;SDS011;56128;37.534;-122.308;2023-03-13T06:15:16;4.00;;;1.70;;
69057;SDS011;56128;37.534;-122.308;2023-03-13T06:17:42;3.40;;;1.80;;
69057;SDS011;56128;37.534;-122.308;2023-03-13T06:20:08;5.05;;;1.50;;
69057;SDS011;56128;37.534;-122.308;2023-03-13T06:22:35;3.90;;;1.80;;
69057;SDS011;56128;37.534;-122.308;2023-03-13T06:25:02;3.75;;;2.20;;
69057;SDS011;56128;37.534;-122.308;2023-03-13T06:27:28;3.42;;;1.83;;
69057;SDS011;56128;37.534;-122.308;2023-03-13T06:29:54;7.78;;;3.05;;
69057;SDS011;56128;37.534;-122.308;2023-03-13T06:32:21;6.07;;;3.28;;
69057;SDS011;56128;37.534;-122.308;2023-03-13T06:34:47;3.60;;;1.65;;
69057;SDS011;56128;37.534;-122.308;2023-03-13T06:37:13;3.05;;;1.45;;
69057;SDS011;56128;37.534;-122.308;2023-03-13T06:39:39;2.42;;;1.20;;
69057;SDS011;56128;37.534;-122.308;2023-03-13T06:42:06;2.20;;;0.93;;
69057;SDS011;56128;37.534;-122.308;2023-03-13T06:44:32;5.20;;;1.10;;
69057;SDS011;56128;37.534;-122.308;2023-03-13T06:46:58;4.40;;;1.20;;
69057;SDS011;56128;37.534;-122.308;2023-03-13T06:49:24;3.63;;;1.30;;
69057;SDS011;56128;37.534;-122.308;2023-03-13T06:51:50;4.53;;;1.55;;
69057;SDS011;56128;37.534;-122.308;2023-03-13T06:54:17;3.80;;;1.80;;
69057;SDS011;56128;37.534;-122.308;2023-03-13T06:56:43;5.50;;;2.45;;
69057;SDS011;56128;37.534;-122.308;2023-03-13T06:59:09;5.88;;;2.72;;
69057;SDS011;56128;37.534;-122.308;2023-03-13T07:01:35;6.97;;;2.65;;
69057;SDS011;56128;37.534;-122.308;2023-03-13T07:04:01;6.70;;;3.20;;
69057;SDS011;56128;37.534;-122.308;2023-03-13T07:06:28;6.63;;;3.10;;
69057;SDS011;56128;37.534;-122.308;2023-03-13T07:08:54;4.85;;;3.05;;
69057;SDS011;56128;37.534;-122.308;2023-03-13T07:11:20;4.75;;;2.53;;
69057;SDS011;56128;37.534;-122.308;2023-03-13T07:13:46;3.85;;;2.03;;
69057;SDS011;56128;37.534;-122.308;2023-03-13T07:16:12;8.13;;;3.67;;
69057;SDS011;56128;37.534;-122.308;2023-03-13T07:18:39;7.55;;;4.18;;
69057;SDS011;56128;37.534;-122.308;2023-03-13T07:21:09;7.72;;;4.50;;
69057;SDS011;56128;37.534;-122.308;2023-03-13T07:23:36;8.57;;;4.95;;
69057;SDS011;56128;37.534;-122.308;2023-03-13T07:26:04;8.55;;;4.50;;
69057;SDS011;56128;37.534;-122.308;2023-03-13T07:28:32;6.97;;;4.00;;
69057;SDS011;56128;37.534;-122.308;2023-03-13T07:31:17;7.15;;;4.00;;
69057;SDS011;56128;37.534;-122.308;2023-03-13T07:33:45;3.97;;;2.35;;
69057;SDS011;56128;37.534;-122.308;2023-03-13T07:36:12;6.55;;;2.20;;
69057;SDS011;56128;37.534;-122.308;2023-03-13T07:38:39;3.03;;;1.60;;
69057;SDS011;56128;37.534;-122.308;2023-03-13T07:41:09;8.18;;;1.85;;
69057;SDS011;56128;37.534;-122.308;2023-03-13T07:43:37;3.58;;;1.60;;
69057;SDS011;56128;37.534;-122.308;2023-03-13T07:46:04;2.72;;;1.60;;
69057;SDS011;56128;37.534;-122.308;2023-03-13T07:48:36;2.70;;;1.50;;
69057;SDS011;56128;37.534;-122.308;2023-03-13T07:51:04;3.88;;;1.70;;
69057;SDS011;56128;37.534;-122.308;2023-03-13T07:53:32;4.22;;;1.83;;
69057;SDS011;56128;37.534;-122.308;2023-03-13T07:58:30;3.20;;;1.63;;
69057;SDS011;56128;37.534;-122.308;2023-03-13T08:00:58;5.68;;;1.73;;
69057;SDS011;56128;37.534;-122.308;2023-03-13T08:03:25;2.85;;;1.45;;
69057;SDS011;56128;37.534;-122.308;2023-03-13T08:05:56;4.00;;;2.03;;
69057;SDS011;56128;37.534;-122.308;2023-03-13T08:08:26;3.72;;;1.90;;
69057;SDS011;56128;37.534;-122.308;2023-03-13T08:10:57;4.80;;;1.80;;
69057;SDS011;56128;37.534;-122.308;2023-03-13T08:13:24;3.20;;;1.48;;
69057;SDS011;56128;37.534;-122.308;2023-03-13T08:15:51;5.53;;;2.00;;
69057;SDS011;56128;37.534;-122.308;2023-03-13T08:18:17;2.95;;;1.65;;
69057;SDS011;56128;37.534;-122.308;2023-03-13T08:20:43;3.00;;;1.48;;
69057;SDS011;56128;37.534;-122.308;2023-03-13T08:23:09;3.42;;;1.40;;
69057;SDS011;56128;37.534;-122.308;2023-03-13T08:25:36;5.00;;;1.40;;
69057;SDS011;56128;37.534;-122.308;2023-03-13T08:28:02;3.50;;;1.63;;
69057;SDS011;56128;37.534;-122.308;2023-03-13T08:30:28;2.28;;;1.40;;
69057;SDS011;56128;37.534;-122.308;2023-03-13T08:32:54;3.15;;;1.25;;
69057;SDS011;56128;37.534;-122.308;2023-03-13T08:35:20;2.35;;;1.27;;
69057;SDS011;56128;37.534;-122.308;2023-03-13T08:37:47;2.85;;;1.20;;
69057;SDS011;56128;37.534;-122.308;2023-03-13T08:40:13;2.30;;;1.20;;
69057;SDS011;56128;37.534;-122.308;2023-03-13T08:42:39;3.08;;;1.40;;
69057;SDS011;56128;37.534;-122.308;2023-03-13T08:45:06;2.47;;;1.23;;
69057;SDS011;56128;37.534;-122.308;2023-03-13T08:47:32;3.90;;;1.40;;
69057;SDS011;56128;37.534;-122.308;2023-03-13T08:49:58;3.15;;;1.45;;
69057;SDS011;56128;37.534;-122.308;2023-03-13T08:52:25;3.03;;;1.30;;
69057;SDS011;56128;37.534;-122.308;2023-03-13T08:54:51;3.83;;;1.42;;
69057;SDS011;56128;37.534;-122.308;2023-03-13T08:57:17;5.95;;;1.70;;
69057;SDS011;56128;37.534;-122.308;2023-03-13T08:59:43;2.67;;;1.25;;
69057;SDS011;56128;37.534;-122.308;2023-03-13T09:02:09;3.72;;;1.35;;
69057;SDS011;56128;37.534;-122.308;2023-03-13T09:04:36;3.90;;;1.25;;
69057;SDS011;56128;37.534;-122.308;2023-03-13T09:07:02;2.50;;;1.20;;
69057;SDS011;56128;37.534;-122.308;2023-03-13T09:09:28;2.10;;;1.20;;
69057;SDS011;56128;37.534;-122.308;2023-03-13T09:11:54;3.33;;;1.30;;
69057;SDS011;56128;37.534;-122.308;2023-03-13T09:14:20;2.08;;;1.10;;
69057;SDS011;56128;37.534;-122.308;2023-03-13T09:16:47;2.03;;;1.00;;
69057;SDS011;56128;37.534;-122.308;2023-03-13T09:19:14;1.88;;;1.00;;
69057;SDS011;56128;37.534;-122.308;2023-03-13T09:21:40;1.98;;;0.98;;
69057;SDS011;56128;37.534;-122.308;2023-03-13T09:24:07;2.05;;;1.00;;
69057;SDS011;56128;37.534;-122.308;2023-03-13T09:26:33;2.90;;;1.10;;
69057;SDS011;56128;37.534;-122.308;2023-03-13T09:28:59;2.13;;;0.70;;
69057;SDS011;56128;37.534;-122.308;2023-03-13T09:31:27;3.30;;;1.17;;
69057;SDS011;56128;37.534;-122.308;2023-03-13T09:33:55;1.98;;;1.00;;
69057;SDS011;56128;37.534;-122.308;2023-03-13T09:36:21;3.00;;;0.73;;
69057;SDS011;56128;37.534;-122.308;2023-03-13T09:38:49;1.92;;;0.90;;
69057;SDS011;56128;37.534;-122.308;2023-03-13T09:46:22;3.80;;;0.68;;
69057;SDS011;56128;37.534;-122.308;2023-03-13T09:49:02;1.40;;;0.80;;
69057;SDS011;56128;37.534;-122.308;2023-03-13T09:51:36;3.03;;;0.88;;
69057;SDS011;56128;37.534;-122.308;2023-03-13T09:54:08;1.58;;;0.68;;
69057;SDS011;56128;37.534;-122.308;2023-03-13T10:00:12;4.55;;;0.80;;
69057;SDS011;56128;37.534;-122.308;2023-03-13T10:02:31;3.08;;;0.90;;
69057;SDS011;56128;37.534;-122.308;2023-03-13T10:07:39;1.63;;;0.70;;
69057;SDS011;56128;37.534;-122.308;2023-03-13T10:10:09;1.08;;;0.80;;
69057;SDS011;56128;37.534;-122.308;2023-03-13T10:12:55;1.90;;;0.90;;
69057;SDS011;56128;37.534;-122.308;2023-03-13T10:17:59;2.67;;;0.88;;
69057;SDS011;56128;37.534;-122.308;2023-03-13T10:20:35;4.60;;;0.85;;
69057;SDS011;56128;37.534;-122.308;2023-03-13T10:23:04;3.08;;;0.82;;
69057;SDS011;56128;37.534;-122.308;2023-03-13T10:25:38;2.55;;;1.10;;
69057;SDS011;56128;37.534;-122.308;2023-03-13T10:28:07;1.90;;;0.90;;
69057;SDS011;56128;37.534;-122.308;2023-03-13T10:30:42;3.60;;;0.70;;
69057;SDS011;56128;37.534;-122.308;2023-03-13T10:33:20;1.08;;;0.60;;
69057;SDS011;56128;37.534;-122.308;2023-03-13T10:35:59;2.08;;;0.70;;
69057;SDS011;56128;37.534;-122.308;2023-03-13T10:38:28;2.20;;;0.50;;
69057;SDS011;56128;37.534;-122.308;2023-03-13T10:41:00;1.75;;;0.80;;
69057;SDS011;56128;37.534;-122.308;2023-03-13T10:43:33;1.35;;;0.60;;
69057;SDS011;56128;37.534;-122.308;2023-03-13T10:46:00;2.38;;;0.73;;
69057;SDS011;56128;37.534;-122.308;2023-03-13T10:48:35;3.25;;;0.60;;
69057;SDS011;56128;37.534;-122.308;2023-03-13T10:51:02;4.05;;;0.70;;
69057;SDS011;56128;37.534;-122.308;2023-03-13T10:55:56;1.10;;;0.35;;
69057;SDS011;56128;37.534;-122.308;2023-03-13T10:58:33;0.90;;;0.40;;
69057;SDS011;56128;37.534;-122.308;2023-03-13T11:01:24;3.13;;;0.40;;
69057;SDS011;56128;37.534;-122.308;2023-03-13T11:03:54;1.58;;;0.30;;
69057;SDS011;56128;37.534;-122.308;2023-03-13T11:11:54;0.35;;;0.25;;
69057;SDS011;56128;37.534;-122.308;2023-03-13T11:14:26;2.78;;;0.40;;
69057;SDS011;56128;37.534;-122.308;2023-03-13T11:16:59;1.05;;;0.40;;
69057;SDS011;56128;37.534;-122.308;2023-03-13T11:19:37;0.85;;;0.35;;
69057;SDS011;56128;37.534;-122.308;2023-03-13T11:31:06;0.80;;;0.43;;
69057;SDS011;56128;37.534;-122.308;2023-03-13T11:33:47;2.28;;;0.50;;
69057;SDS011;56128;37.534;-122.308;2023-03-13T11:36:31;1.65;;;0.40;;
69057;SDS011;56128;37.534;-122.308;2023-03-13T11:43:01;2.33;;;0.40;;
69057;SDS011;56128;37.534;-122.308;2023-03-13T11:50:51;0.30;;;0.30;;
69057;SDS011;56128;37.534;-122.308;2023-03-13T11:53:36;0.73;;;0.50;;
69057;SDS011;56128;37.534;-122.308;2023-03-13T11:56:16;0.50;;;0.20;;
69057;SDS011;56128;37.534;-122.308;2023-03-13T12:10:17;1.30;;;0.45;;
69057;SDS011;56128;37.534;-122.308;2023-03-13T12:12:55;2.00;;;0.40;;
69057;SDS011;56128;37.534;-122.308;2023-03-13T12:27:12;3.88;;;0.40;;
69057;SDS011;56128;37.534;-122.308;2023-03-13T12:35:35;0.68;;;0.30;;
69057;SDS011;56128;37.534;-122.308;2023-03-13T12:44:08;0.43;;;0.38;;
69057;SDS011;56128;37.534;-122.308;2023-03-13T12:46:46;1.33;;;0.30;;
69057;SDS011;56128;37.534;-122.308;2023-03-13T12:49:28;0.20;;;0.20;;
69057;SDS011;56128;37.534;-122.308;2023-03-13T12:54:49;0.82;;;0.30;;
69057;SDS011;56128;37.534;-122.308;2023-03-13T13:00:35;2.22;;;0.50;;
69057;SDS011;56128;37.534;-122.308;2023-03-13T13:05:58;0.43;;;0.32;;
69057;SDS011;56128;37.534;-122.308;2023-03-13T13:08:25;3.25;;;0.40;;
69057;SDS011;56128;37.534;-122.308;2023-03-13T13:11:28;0.47;;;0.25;;
69057;SDS011;56128;37.534;-122.308;2023-03-13T13:16:47;1.17;;;0.40;;
69057;SDS011;56128;37.534;-122.308;2023-03-13T13:24:54;0.60;;;0.30;;
69057;SDS011;56128;37.534;-122.308;2023-03-13T13:27:38;0.40;;;0.40;;
69057;SDS011;56128;37.534;-122.308;2023-03-13T13:32:47;0.85;;;0.40;;
69057;SDS011;56128;37.534;-122.308;2023-03-13T13:35:18;0.32;;;0.32;;
69057;SDS011;56128;37.534;-122.308;2023-03-13T13:37:45;1.85;;;0.30;;
69057;SDS011;56128;37.534;-122.308;2023-03-13T13:53:41;1.15;;;0.43;;
69057;SDS011;56128;37.534;-122.308;2023-03-13T13:58:58;0.40;;;0.40;;
69057;SDS011;56128;37.534;-122.308;2023-03-13T14:01:25;0.43;;;0.30;;
69057;SDS011;56128;37.534;-122.308;2023-03-13T14:03:52;0.50;;;0.30;;
69057;SDS011;56128;37.534;-122.308;2023-03-13T14:06:25;1.92;;;0.52;;
69057;SDS011;56128;37.534;-122.308;2023-03-13T14:09:01;0.40;;;0.32;;
69057;SDS011;56128;37.534;-122.308;2023-03-13T14:11:41;0.50;;;0.32;;
69057;SDS011;56128;37.534;-122.308;2023-03-13T14:14:14;0.50;;;0.28;;
69057;SDS011;56128;37.534;-122.308;2023-03-13T14:16:43;0.90;;;0.40;;
69057;SDS011;56128;37.534;-122.308;2023-03-13T14:22:12;0.40;;;0.40;;
69057;SDS011;56128;37.534;-122.308;2023-03-13T14:24:38;0.30;;;0.30;;
69057;SDS011;56128;37.534;-122.308;2023-03-13T14:27:15;0.30;;;0.30;;
69057;SDS011;56128;37.534;-122.308;2023-03-13T14:30:02;0.45;;;0.32;;
69057;SDS011;56128;37.534;-122.308;2023-03-13T14:32:31;0.50;;;0.40;;
69057;SDS011;56128;37.534;-122.308;2023-03-13T14:34:57;1.42;;;0.30;;
69057;SDS011;56128;37.534;-122.308;2023-03-13T14:37:36;2.53;;;0.55;;
69057;SDS011;56128;37.534;-122.308;2023-03-13T14:42:49;0.45;;;0.30;;
69057;SDS011;56128;37.534;-122.308;2023-03-13T14:45:20;1.60;;;0.47;;
69057;SDS011;56128;37.534;-122.308;2023-03-13T14:47:50;1.77;;;0.45;;
69057;SDS011;56128;37.534;-122.308;2023-03-13T14:50:17;2.20;;;0.63;;
69057;SDS011;56128;37.534;-122.308;2023-03-13T14:52:48;0.90;;;0.55;;
69057;SDS011;56128;37.534;-122.308;2023-03-13T14:55:33;1.83;;;0.70;;
69057;SDS011;56128;37.534;-122.308;2023-03-13T15:00:53;0.75;;;0.40;;
69057;SDS011;56128;37.534;-122.308;2023-03-13T15:03:26;2.25;;;0.50;;
69057;SDS011;56128;37.534;-122.308;2023-03-13T15:06:02;2.40;;;0.60;;
69057;SDS011;56128;37.534;-122.308;2023-03-13T15:08:32;1.33;;;0.60;;
69057;SDS011;56128;37.534;-122.308;2023-03-13T15:11:15;0.88;;;0.55;;
69057;SDS011;56128;37.534;-122.308;2023-03-13T15:13:42;3.13;;;0.70;;
69057;SDS011;56128;37.534;-122.308;2023-03-13T15:16:16;1.63;;;0.70;;
69057;SDS011;56128;37.534;-122.308;2023-03-13T15:18:44;4.85;;;0.80;;
69057;SDS011;56128;37.534;-122.308;2023-03-13T15:23:38;1.38;;;0.60;;
69057;SDS011;56128;37.534;-122.308;2023-03-13T15:28:37;2.83;;;0.85;;
69057;SDS011;56128;37.534;-122.308;2023-03-13T15:31:03;2.58;;;0.75;;
69057;SDS011;56128;37.534;-122.308;2023-03-13T15:33:30;2.30;;;0.80;;
69057;SDS011;56128;37.534;-122.308;2023-03-13T15:35:56;1.38;;;0.70;;
69057;SDS011;56128;37.534;-122.308;2023-03-13T15:38:24;0.43;;;0.40;;
69057;SDS011;56128;37.534;-122.308;2023-03-13T15:40:51;1.08;;;0.35;;
69057;SDS011;56128;37.534;-122.308;2023-03-13T15:43:19;0.40;;;0.38;;
69057;SDS011;56128;37.534;-122.308;2023-03-13T15:45:46;1.40;;;0.50;;
69057;SDS011;56128;37.534;-122.308;2023-03-13T15:48:18;1.73;;;0.43;;
69057;SDS011;56128;37.534;-122.308;2023-03-13T15:50:49;0.30;;;0.30;;
69057;SDS011;56128;37.534;-122.308;2023-03-13T15:53:23;0.95;;;0.40;;
69057;SDS011;56128;37.534;-122.308;2023-03-13T15:55:53;2.08;;;0.50;;
69057;SDS011;56128;37.534;-122.308;2023-03-13T15:58:21;0.50;;;0.30;;
69057;SDS011;56128;37.534;-122.308;2023-03-13T16:00:48;0.52;;;0.43;;
69057;SDS011;56128;37.534;-122.308;2023-03-13T16:03:18;1.75;;;0.40;;
69057;SDS011;56128;37.534;-122.308;2023-03-13T16:05:48;0.98;;;0.47;;
69057;SDS011;56128;37.534;-122.308;2023-03-13T16:08:16;1.42;;;0.60;;
69057;SDS011;56128;37.534;-122.308;2023-03-13T16:10:50;1.90;;;0.63;;
69057;SDS011;56128;37.534;-122.308;2023-03-13T16:13:17;1.95;;;0.80;;
69057;SDS011;56128;37.534;-122.308;2023-03-13T16:15:44;1.50;;;0.85;;
69057;SDS011;56128;37.534;-122.308;2023-03-13T16:18:12;3.20;;;0.60;;
69057;SDS011;56128;37.534;-122.308;2023-03-13T16:20:44;0.30;;;0.30;;
69057;SDS011;56128;37.534;-122.308;2023-03-13T16:23:11;0.47;;;0.40;;
69057;SDS011;56128;37.534;-122.308;2023-03-13T16:25:38;0.85;;;0.50;;
69057;SDS011;56128;37.534;-122.308;2023-03-13T16:28:05;0.80;;;0.43;;
69057;SDS011;56128;37.534;-122.308;2023-03-13T16:30:32;1.10;;;0.50;;
69057;SDS011;56128;37.534;-122.308;2023-03-13T16:32:59;0.80;;;0.47;;
69057;SDS011;56128;37.534;-122.308;2023-03-13T16:35:26;0.90;;;0.47;;
69057;SDS011;56128;37.534;-122.308;2023-03-13T16:37:54;0.80;;;0.57;;